sensor_id;sensor_type;location;lat;lon;timestamp;pressure;altitude;pressure_sealevel;temperature;humidity
27210;BME280;14721;42.668;23.386;2023-10-31T01:39:26;95436.44;;;11.37;86.31
27210;BME280;14721;42.668;23.386;2023-10-31T01:41:51;95423.75;;;11.28;85.74
27210;BME280;14721;42.668;23.386;2023-10-31T01:44:22;95439.47;;;11.33;86.22
27210;BME280;14721;42.668;23.386;2023-10-31T01:46:47;95399.34;;;11.09;86.13
27210;BME280;14721;42.668;23.386;2023-10-31T01:49:16;95441.56;;;11.40;85.88
27210;BME280;14721;42.668;23.386;2023-10-31T01:51:44;95396.50;;;11.23;86.06
27210;BME280;14721;42.668;23.386;2023-10-31T01:54:10;95430.56;;;11.32;86.36
27210;BME280;14721;42.668;23.386;2023-10-31T01:56:40;95422.78;;;11.29;85.81
27210;BME280;14721;42.668;23.386;2023-10-31T01:59:06;95393.81;;;11.23;84.74
27210;BME280;14721;42.668;23.386;2023-10-31T02:01:38;95432.72;;;11.51;84.83
27210;BME280;14721;42.668;23.386;2023-10-31T02:04:05;95424.06;;;11.48;84.44
27210;BME280;14721;42.668;23.386;2023-10-31T02:06:31;95401.84;;;11.23;84.43
27210;BME280;14721;42.668;23.386;2023-10-31T02:08:56;95428.53;;;11.47;84.54
27210;BME280;14721;42.668;23.386;2023-10-31T02:11:22;95402.50;;;11.38;84.20
27210;BME280;14721;42.668;23.386;2023-10-31T02:13:47;95414.56;;;11.43;84.15
27210;BME280;14721;42.668;23.386;2023-10-31T02:16:13;95378.75;;;11.22;83.45
27210;BME280;14721;42.668;23.386;2023-10-31T02:18:48;95414.44;;;11.45;83.38
27210;BME280;14721;42.668;23.386;2023-10-31T02:21:14;95406.16;;;11.37;83.15
27210;BME280;14721;42.668;23.386;2023-10-31T02:23:41;95389.09;;;11.27;83.65
27210;BME280;14721;42.668;23.386;2023-10-31T02:26:06;95410.41;;;11.39;83.59
27210;BME280;14721;42.668;23.386;2023-10-31T02:28:32;95413.06;;;11.39;83.96
27210;BME280;14721;42.668;23.386;2023-10-31T02:30:57;95399.69;;;11.28;83.62
27210;BME280;14721;42.668;23.386;2023-10-31T02:33:25;95387.59;;;11.23;83.14
27210;BME280;14721;42.668;23.386;2023-10-31T02:35:51;95409.13;;;11.21;83.45
27210;BME280;14721;42.668;23.386;2023-10-31T02:38:16;95374.38;;;10.98;83.45
27210;BME280;14721;42.668;23.386;2023-10-31T02:40:44;95404.56;;;11.11;84.04
27210;BME280;14721;42.668;23.386;2023-10-31T02:43:10;95382.63;;;10.95;84.31
27210;BME280;14721;42.668;23.386;2023-10-31T02:45:35;95419.25;;;11.05;84.36
27210;BME280;14721;42.668;23.386;2023-10-31T02:48:01;95410.72;;;11.00;84.84
27210;BME280;14721;42.668;23.386;2023-10-31T02:53:47;95403.38;;;10.91;84.83
27210;BME280;14721;42.668;23.386;2023-10-31T02:56:15;95406.03;;;10.80;85.89
27210;BME280;14721;42.668;23.386;2023-10-31T02:58:41;95392.59;;;10.69;85.43
27210;BME280;14721;42.668;23.386;2023-10-31T03:01:09;95417.19;;;10.85;85.87
27210;BME280;14721;42.668;23.386;2023-10-31T03:03:45;95391.59;;;10.70;85.77
27210;BME280;14721;42.668;23.386;2023-10-31T03:06:13;95385.25;;;10.60;85.73
27210;BME280;14721;42.668;23.386;2023-10-31T03:08:38;95417.19;;;10.85;86.08
27210;BME280;14721;42.668;23.386;2023-10-31T03:11:04;95388.31;;;10.67;86.55
27210;BME280;14721;42.668;23.386;2023-10-31T03:16:55;95405.31;;;10.66;86.72
27210;BME280;14721;42.668;23.386;2023-10-31T03:19:20;95400.03;;;10.53;86.85
27210;BME280;14721;42.668;23.386;2023-10-31T03:21:45;95407.94;;;10.55;87.24
27210;BME280;14721;42.668;23.386;2023-10-31T03:24:21;95412.41;;;10.54;87.47
27210;BME280;14721;42.668;23.386;2023-10-31T03:26:48;95427.22;;;10.58;87.23
27210;BME280;14721;42.668;23.386;2023-10-31T03:29:17;95366.75;;;10.34;87.13
27210;BME280;14721;42.668;23.386;2023-10-31T03:31:44;95367.56;;;10.34;86.92
27210;BME280;14721;42.668;23.386;2023-10-31T03:34:10;95400.75;;;10.55;86.43
27210;BME280;14721;42.668;23.386;2023-10-31T03:36:35;95396.59;;;10.51;86.90
27210;BME280;14721;42.668;23.386;2023-10-31T03:42:23;95392.69;;;10.32;88.28
27210;BME280;14721;42.668;23.386;2023-10-31T03:44:48;95389.38;;;10.41;87.75
27210;BME280;14721;42.668;23.386;2023-10-31T03:47:14;95370.34;;;10.33;87.99
27210;BME280;14721;42.668;23.386;2023-10-31T03:49:41;95396.81;;;10.48;87.85
27210;BME280;14721;42.668;23.386;2023-10-31T03:52:07;95393.94;;;10.51;87.82
27210;BME280;14721;42.668;23.386;2023-10-31T03:54:32;95369.75;;;10.29;88.18
27210;BME280;14721;42.668;23.386;2023-10-31T03:57:00;95392.69;;;10.44;89.00
27210;BME280;14721;42.668;23.386;2023-10-31T04:02:47;95384.69;;;10.32;88.75
27210;BME280;14721;42.668;23.386;2023-10-31T04:05:13;95385.00;;;10.27;88.95
27210;BME280;14721;42.668;23.386;2023-10-31T04:07:38;95374.88;;;10.20;88.66
27210;BME280;14721;42.668;23.386;2023-10-31T04:10:23;95395.16;;;10.35;89.11
27210;BME280;14721;42.668;23.386;2023-10-31T04:12:51;95404.97;;;10.34;89.02
27210;BME280;14721;42.668;23.386;2023-10-31T04:15:16;95403.28;;;10.33;89.09
27210;BME280;14721;42.668;23.386;2023-10-31T04:17:56;95398.19;;;10.18;89.39
27210;BME280;14721;42.668;23.386;2023-10-31T04:20:22;95395.09;;;10.11;89.76
27210;BME280;14721;42.668;23.386;2023-10-31T04:22:51;95403.28;;;9.96;90.16
27210;BME280;14721;42.668;23.386;2023-10-31T04:42:41;95359.66;;;9.34;93.44
27210;BME280;14721;42.668;23.386;2023-10-31T04:48:35;95376.63;;;9.45;93.84
27210;BME280;14721;42.668;23.386;2023-10-31T04:51:01;95376.00;;;9.42;94.10
27210;BME280;14721;42.668;23.386;2023-10-31T05:00:33;95408.22;;;9.51;94.40
27210;BME280;14721;42.668;23.386;2023-10-31T05:11:55;95421.03;;;9.72;92.71
27210;BME280;14721;42.668;23.386;2023-10-31T05:20:21;95408.09;;;10.64;90.17
27210;BME280;14721;42.668;23.386;2023-10-31T05:55:17;95388.03;;;16.78;57.35
27210;BME280;14721;42.668;23.386;2023-10-31T05:57:43;95407.00;;;16.96;56.56
27210;BME280;14721;42.668;23.386;2023-10-31T06:00:09;95380.81;;;16.97;55.59
27210;BME280;14721;42.668;23.386;2023-10-31T06:02:34;95403.44;;;16.96;55.79
27210;BME280;14721;42.668;23.386;2023-10-31T06:05:00;95437.31;;;17.08;55.15
27210;BME280;14721;42.668;23.386;2023-10-31T06:07:25;95419.19;;;17.00;54.94
27210;BME280;14721;42.668;23.386;2023-10-31T06:09:53;95425.06;;;17.13;54.86
27210;BME280;14721;42.668;23.386;2023-10-31T06:12:19;95431.44;;;17.49;53.48
27210;BME280;14721;42.668;23.386;2023-10-31T06:14:44;95425.00;;;17.67;53.12
27210;BME280;14721;42.668;23.386;2023-10-31T06:17:10;95405.25;;;17.84;52.26
27210;BME280;14721;42.668;23.386;2023-10-31T06:19:36;95435.56;;;18.31;51.44
27210;BME280;14721;42.668;23.386;2023-10-31T06:22:02;95438.00;;;18.59;50.11
27210;BME280;14721;42.668;23.386;2023-10-31T06:24:27;95419.94;;;18.68;49.93
27210;BME280;14721;42.668;23.386;2023-10-31T06:26:53;95423.97;;;18.90;49.54
27210;BME280;14721;42.668;23.386;2023-10-31T06:29:21;95415.19;;;18.96;49.47
27210;BME280;14721;42.668;23.386;2023-10-31T06:31:49;95415.75;;;19.07;49.13
27210;BME280;14721;42.668;23.386;2023-10-31T06:34:14;95429.34;;;19.65;48.17
27210;BME280;14721;42.668;23.386;2023-10-31T06:36:40;95418.84;;;19.62;48.02
27210;BME280;14721;42.668;23.386;2023-10-31T06:39:05;95433.16;;;20.04;47.05
27210;BME280;14721;42.668;23.386;2023-10-31T06:41:33;95423.19;;;20.20;46.90
27210;BME280;14721;42.668;23.386;2023-10-31T06:44:21;95385.88;;;20.38;46.10
27210;BME280;14721;42.668;23.386;2023-10-31T06:47:04;95419.13;;;20.32;46.34
27210;BME280;14721;42.668;23.386;2023-10-31T06:49:51;95426.06;;;20.43;46.48
27210;BME280;14721;42.668;23.386;2023-10-31T06:52:15;95422.91;;;21.02;45.51
27210;BME280;14721;42.668;23.386;2023-10-31T06:54:41;95410.00;;;21.43;44.54
27210;BME280;14721;42.668;23.386;2023-10-31T06:57:06;95410.50;;;21.46;44.09
27210;BME280;14721;42.668;23.386;2023-10-31T06:59:31;95407.78;;;21.46;44.35
27210;BME280;14721;42.668;23.386;2023-10-31T07:01:57;95399.69;;;21.69;43.66
27210;BME280;14721;42.668;23.386;2023-10-31T07:04:22;95414.88;;;21.86;43.48
27210;BME280;14721;42.668;23.386;2023-10-31T07:06:48;95411.16;;;22.55;42.28
27210;BME280;14721;42.668;23.386;2023-10-31T07:09:14;95403.50;;;23.02;41.52
27210;BME280;14721;42.668;23.386;2023-10-31T07:11:39;95406.91;;;22.89;41.00
27210;BME280;14721;42.668;23.386;2023-10-31T07:14:27;95380.50;;;23.19;40.72
27210;BME280;14721;42.668;23.386;2023-10-31T07:17:13;95410.28;;;23.49;39.81
27210;BME280;14721;42.668;23.386;2023-10-31T07:19:49;95409.66;;;23.83;39.15
27210;BME280;14721;42.668;23.386;2023-10-31T07:22:14;95395.59;;;24.00;39.21
27210;BME280;14721;42.668;23.386;2023-10-31T07:24:40;95404.00;;;24.41;38.46
27210;BME280;14721;42.668;23.386;2023-10-31T07:27:06;95392.03;;;24.63;37.56
27210;BME280;14721;42.668;23.386;2023-10-31T07:29:31;95384.38;;;25.01;36.34
27210;BME280;14721;42.668;23.386;2023-10-31T07:31:59;95391.38;;;25.10;36.19
27210;BME280;14721;42.668;23.386;2023-10-31T07:34:28;95380.84;;;25.13;36.18
27210;BME280;14721;42.668;23.386;2023-10-31T07:36:54;95376.63;;;25.38;35.36
27210;BME280;14721;42.668;23.386;2023-10-31T07:39:19;95391.69;;;25.62;35.13
27210;BME280;14721;42.668;23.386;2023-10-31T07:41:45;95394.03;;;25.31;35.73
27210;BME280;14721;42.668;23.386;2023-10-31T07:44:10;95371.16;;;25.11;36.15
27210;BME280;14721;42.668;23.386;2023-10-31T07:46:36;95378.75;;;25.43;35.97
27210;BME280;14721;42.668;23.386;2023-10-31T07:49:01;95361.91;;;25.39;36.41
27210;BME280;14721;42.668;23.386;2023-10-31T07:51:26;95358.44;;;24.97;37.08
27210;BME280;14721;42.668;23.386;2023-10-31T07:53:52;95358.03;;;24.66;37.56
27210;BME280;14721;42.668;23.386;2023-10-31T07:56:18;95350.25;;;24.21;38.30
27210;BME280;14721;42.668;23.386;2023-10-31T07:58:48;95353.97;;;23.77;39.46
27210;BME280;14721;42.668;23.386;2023-10-31T08:01:14;95356.72;;;22.84;41.64
27210;BME280;14721;42.668;23.386;2023-10-31T08:03:39;95364.72;;;22.11;43.26
27210;BME280;14721;42.668;23.386;2023-10-31T08:06:06;95351.09;;;21.66;44.40
27210;BME280;14721;42.668;23.386;2023-10-31T08:08:36;95351.22;;;21.11;45.47
27210;BME280;14721;42.668;23.386;2023-10-31T08:11:02;95347.59;;;20.64;47.37
27210;BME280;14721;42.668;23.386;2023-10-31T08:13:30;95344.81;;;20.25;48.14
27210;BME280;14721;42.668;23.386;2023-10-31T08:15:55;95335.50;;;20.04;48.73
27210;BME280;14721;42.668;23.386;2023-10-31T08:18:23;95337.72;;;19.84;49.54
27210;BME280;14721;42.668;23.386;2023-10-31T08:20:49;95326.69;;;19.78;50.15
27210;BME280;14721;42.668;23.386;2023-10-31T08:23:16;95328.72;;;19.60;50.85
27210;BME280;14721;42.668;23.386;2023-10-31T08:25:45;95298.50;;;19.23;51.54
27210;BME280;14721;42.668;23.386;2023-10-31T08:28:30;95316.13;;;19.27;52.14
27210;BME280;14721;42.668;23.386;2023-10-31T08:30:57;95316.72;;;19.13;52.21
27210;BME280;14721;42.668;23.386;2023-10-31T08:33:23;95333.53;;;19.24;52.47
27210;BME280;14721;42.668;23.386;2023-10-31T08:35:48;95320.16;;;19.23;52.16
27210;BME280;14721;42.668;23.386;2023-10-31T08:38:14;95320.13;;;19.15;52.54
27210;BME280;14721;42.668;23.386;2023-10-31T08:40:41;95307.25;;;19.09;52.91
27210;BME280;14721;42.668;23.386;2023-10-31T08:43:09;95312.16;;;19.13;52.87
27210;BME280;14721;42.668;23.386;2023-10-31T08:45:35;95291.38;;;18.72;53.85
27210;BME280;14721;42.668;23.386;2023-10-31T08:54:52;95291.44;;;18.38;56.44
27210;BME280;14721;42.668;23.386;2023-10-31T08:57:30;95300.47;;;18.04;57.78
27210;BME280;14721;42.668;23.386;2023-10-31T09:00:04;95279.91;;;17.85;58.43
27210;BME280;14721;42.668;23.386;2023-10-31T09:02:30;95271.00;;;17.93;58.35
27210;BME280;14721;42.668;23.386;2023-10-31T09:04:55;95273.94;;;17.99;58.56
27210;BME280;14721;42.668;23.386;2023-10-31T09:07:28;95270.59;;;18.05;58.81
27210;BME280;14721;42.668;23.386;2023-10-31T09:09:54;95262.44;;;18.31;58.50
27210;BME280;14721;42.668;23.386;2023-10-31T09:12:19;95257.78;;;18.41;57.72
27210;BME280;14721;42.668;23.386;2023-10-31T09:14:47;95254.31;;;18.56;57.20
27210;BME280;14721;42.668;23.386;2023-10-31T09:17:12;95242.66;;;18.72;56.53
27210;BME280;14721;42.668;23.386;2023-10-31T09:19:38;95241.22;;;18.94;56.05
27210;BME280;14721;42.668;23.386;2023-10-31T09:22:09;95213.63;;;18.98;55.10
27210;BME280;14721;42.668;23.386;2023-10-31T09:24:34;95231.09;;;19.20;54.33
27210;BME280;14721;42.668;23.386;2023-10-31T09:27:10;95223.66;;;19.14;54.46
27210;BME280;14721;42.668;23.386;2023-10-31T09:29:36;95213.13;;;19.19;54.23
27210;BME280;14721;42.668;23.386;2023-10-31T09:32:02;95219.28;;;19.37;53.96
27210;BME280;14721;42.668;23.386;2023-10-31T09:34:30;95154.06;;;19.06;53.64
27210;BME280;14721;42.668;23.386;2023-10-31T09:36:56;95159.47;;;18.98;54.00
27210;BME280;14721;42.668;23.386;2023-10-31T09:39:23;95198.75;;;19.10;54.40
27210;BME280;14721;42.668;23.386;2023-10-31T09:41:48;95179.81;;;19.18;54.29
27210;BME280;14721;42.668;23.386;2023-10-31T09:44:14;95191.00;;;19.31;53.54
27210;BME280;14721;42.668;23.386;2023-10-31T09:46:42;95191.63;;;19.17;53.52
27210;BME280;14721;42.668;23.386;2023-10-31T09:49:08;95173.72;;;19.00;54.19
27210;BME280;14721;42.668;23.386;2023-10-31T09:51:36;95158.63;;;19.06;53.74
27210;BME280;14721;42.668;23.386;2023-10-31T09:54:04;95166.41;;;19.25;53.31
27210;BME280;14721;42.668;23.386;2023-10-31T09:56:31;95148.34;;;19.33;52.62
27210;BME280;14721;42.668;23.386;2023-10-31T09:59:00;95142.59;;;19.28;52.11
27210;BME280;14721;42.668;23.386;2023-10-31T10:01:26;95139.66;;;19.22;51.83
27210;BME280;14721;42.668;23.386;2023-10-31T10:03:54;95154.22;;;19.21;51.65
27210;BME280;14721;42.668;23.386;2023-10-31T10:06:26;95112.09;;;18.94;51.51
27210;BME280;14721;42.668;23.386;2023-10-31T10:09:11;95105.47;;;19.13;51.41
27210;BME280;14721;42.668;23.386;2023-10-31T10:11:36;95115.31;;;19.14;51.62
27210;BME280;14721;42.668;23.386;2023-10-31T10:14:02;95123.94;;;19.41;51.18
27210;BME280;14721;42.668;23.386;2023-10-31T10:16:32;95123.09;;;19.33;50.90
27210;BME280;14721;42.668;23.386;2023-10-31T10:19:14;95111.38;;;19.56;50.35
27210;BME280;14721;42.668;23.386;2023-10-31T10:24:14;95099.66;;;19.72;50.16
27210;BME280;14721;42.668;23.386;2023-10-31T10:26:40;95090.81;;;19.78;49.58
27210;BME280;14721;42.668;23.386;2023-10-31T10:29:06;95108.19;;;19.99;49.87
27210;BME280;14721;42.668;23.386;2023-10-31T10:31:31;95083.44;;;20.02;49.79
27210;BME280;14721;42.668;23.386;2023-10-31T10:33:59;95090.78;;;20.32;48.77
27210;BME280;14721;42.668;23.386;2023-10-31T10:36:27;95085.56;;;20.54;47.40
27210;BME280;14721;42.668;23.386;2023-10-31T10:38:56;95091.16;;;20.52;45.37
27210;BME280;14721;42.668;23.386;2023-10-31T10:41:25;95093.38;;;20.48;45.20
27210;BME280;14721;42.668;23.386;2023-10-31T10:43:56;95089.47;;;20.74;45.28
27210;BME280;14721;42.668;23.386;2023-10-31T10:46:24;95068.91;;;21.02;44.60
27210;BME280;14721;42.668;23.386;2023-10-31T10:48:55;95053.13;;;21.20;44.59
27210;BME280;14721;42.668;23.386;2023-10-31T10:51:25;95061.94;;;21.36;44.23
27210;BME280;14721;42.668;23.386;2023-10-31T10:54:15;95032.91;;;21.37;44.27
27210;BME280;14721;42.668;23.386;2023-10-31T10:56:59;95053.03;;;21.79;43.96
27210;BME280;14721;42.668;23.386;2023-10-31T10:59:45;95042.56;;;22.12;44.03
27210;BME280;14721;42.668;23.386;2023-10-31T11:02:17;95044.34;;;22.19;43.08
27210;BME280;14721;42.668;23.386;2023-10-31T11:04:43;95006.97;;;21.78;42.74
27210;BME280;14721;42.668;23.386;2023-10-31T11:07:09;95017.28;;;21.82;42.65
27210;BME280;14721;42.668;23.386;2023-10-31T11:09:35;95023.56;;;21.83;42.88
27210;BME280;14721;42.668;23.386;2023-10-31T11:12:02;95014.56;;;21.82;42.59
27210;BME280;14721;42.668;23.386;2023-10-31T11:14:29;95007.53;;;21.73;42.81
27210;BME280;14721;42.668;23.386;2023-10-31T11:16:59;95025.84;;;21.79;42.29
27210;BME280;14721;42.668;23.386;2023-10-31T11:19:29;94986.91;;;21.79;42.57
27210;BME280;14721;42.668;23.386;2023-10-31T11:22:00;94995.03;;;21.93;42.08
27210;BME280;14721;42.668;23.386;2023-10-31T11:24:31;95004.97;;;22.01;41.73
27210;BME280;14721;42.668;23.386;2023-10-31T11:27:01;94984.38;;;22.13;41.58
27210;BME280;14721;42.668;23.386;2023-10-31T11:29:31;94978.84;;;22.21;40.96
27210;BME280;14721;42.668;23.386;2023-10-31T11:31:56;94979.25;;;22.39;41.05
27210;BME280;14721;42.668;23.386;2023-10-31T11:34:23;94964.78;;;22.53;40.88
27210;BME280;14721;42.668;23.386;2023-10-31T11:40:15;94941.72;;;22.77;40.43
27210;BME280;14721;42.668;23.386;2023-10-31T11:43:06;94898.94;;;22.71;40.05
27210;BME280;14721;42.668;23.386;2023-10-31T11:45:44;94956.63;;;23.29;39.72
27210;BME280;14721;42.668;23.386;2023-10-31T11:48:12;94951.69;;;23.46;39.66
27210;BME280;14721;42.668;23.386;2023-10-31T11:50:38;94913.94;;;23.43;39.48
27210;BME280;14721;42.668;23.386;2023-10-31T11:53:16;94939.53;;;23.48;39.72
27210;BME280;14721;42.668;23.386;2023-10-31T11:55:43;94938.38;;;23.64;40.08
27210;BME280;14721;42.668;23.386;2023-10-31T12:00:38;94934.28;;;23.87;40.31
27210;BME280;14721;42.668;23.386;2023-10-31T12:03:04;94926.94;;;23.88;40.22
27210;BME280;14721;42.668;23.386;2023-10-31T12:05:29;94925.09;;;23.95;39.87
27210;BME280;14721;42.668;23.386;2023-10-31T12:07:55;94923.22;;;23.95;39.77
27210;BME280;14721;42.668;23.386;2023-10-31T12:10:26;94912.88;;;23.91;39.53
27210;BME280;14721;42.668;23.386;2023-10-31T12:12:56;94917.34;;;23.98;39.47
27210;BME280;14721;42.668;23.386;2023-10-31T12:15:23;94883.69;;;23.91;39.51
27210;BME280;14721;42.668;23.386;2023-10-31T12:17:49;94897.84;;;24.08;39.39
27210;BME280;14721;42.668;23.386;2023-10-31T12:20:15;94899.94;;;24.13;39.18
27210;BME280;14721;42.668;23.386;2023-10-31T12:22:43;94903.75;;;24.12;39.35
27210;BME280;14721;42.668;23.386;2023-10-31T12:25:11;94892.59;;;24.07;39.07
27210;BME280;14721;42.668;23.386;2023-10-31T12:27:47;94906.28;;;24.26;39.32
27210;BME280;14721;42.668;23.386;2023-10-31T12:30:17;94905.66;;;24.24;39.18
27210;BME280;14721;42.668;23.386;2023-10-31T12:32:45;94904.41;;;24.27;39.18
27210;BME280;14721;42.668;23.386;2023-10-31T12:35:16;94899.16;;;24.38;39.04
27210;BME280;14721;42.668;23.386;2023-10-31T12:37:54;94898.13;;;24.46;38.66
27210;BME280;14721;42.668;23.386;2023-10-31T12:40:42;94885.13;;;24.48;38.79
27210;BME280;14721;42.668;23.386;2023-10-31T12:43:09;94858.00;;;24.33;38.73
27210;BME280;14721;42.668;23.386;2023-10-31T12:45:36;94872.06;;;24.37;38.63
27210;BME280;14721;42.668;23.386;2023-10-31T13:09:01;94873.19;;;23.35;40.45
27210;BME280;14721;42.668;23.386;2023-10-31T13:12:42;94871.59;;;23.19;40.83
27210;BME280;14721;42.668;23.386;2023-10-31T13:15:27;94852.22;;;23.01;41.44
27210;BME280;14721;42.668;23.386;2023-10-31T13:18:06;94872.97;;;23.02;41.45
27210;BME280;14721;42.668;23.386;2023-10-31T13:20:41;94842.41;;;22.73;41.67
27210;BME280;14721;42.668;23.386;2023-10-31T13:23:37;94799.81;;;22.65;41.53
27210;BME280;14721;42.668;23.386;2023-10-31T13:26:51;94862.41;;;22.93;41.89
27210;BME280;14721;42.668;23.386;2023-10-31T13:38:48;94825.69;;;22.82;41.77
27210;BME280;14721;42.668;23.386;2023-10-31T13:41:34;94838.75;;;22.93;41.79
27210;BME280;14721;42.668;23.386;2023-10-31T13:44:02;94843.53;;;22.85;42.14
27210;BME280;14721;42.668;23.386;2023-10-31T13:46:33;94829.72;;;22.86;41.84
27210;BME280;14721;42.668;23.386;2023-10-31T13:51:46;94844.47;;;23.05;41.86
27210;BME280;14721;42.668;23.386;2023-10-31T13:54:11;94827.97;;;23.13;41.76
27210;BME280;14721;42.668;23.386;2023-10-31T13:56:39;94813.47;;;23.06;41.48
27210;BME280;14721;42.668;23.386;2023-10-31T13:59:07;94815.09;;;23.00;41.08
27210;BME280;14721;42.668;23.386;2023-10-31T14:01:35;94816.16;;;22.99;41.35
27210;BME280;14721;42.668;23.386;2023-10-31T14:13:15;94839.91;;;22.78;42.53
27210;BME280;14721;42.668;23.386;2023-10-31T14:15:50;94848.25;;;22.70;42.58
27210;BME280;14721;42.668;23.386;2023-10-31T14:18:29;94840.41;;;22.60;43.05
27210;BME280;14721;42.668;23.386;2023-10-31T14:21:02;94822.25;;;22.46;43.13
27210;BME280;14721;42.668;23.386;2023-10-31T14:23:27;94821.75;;;22.36;43.42
27210;BME280;14721;42.668;23.386;2023-10-31T14:25:53;94838.53;;;22.40;43.47
27210;BME280;14721;42.668;23.386;2023-10-31T14:28:22;94830.84;;;22.22;43.69
27210;BME280;14721;42.668;23.386;2023-10-31T14:31:08;94843.16;;;22.18;44.10
27210;BME280;14721;42.668;23.386;2023-10-31T14:33:35;94839.88;;;22.01;44.29
27210;BME280;14721;42.668;23.386;2023-10-31T14:36:01;94851.78;;;22.00;44.35
27210;BME280;14721;42.668;23.386;2023-10-31T14:38:35;94854.75;;;21.84;44.78
27210;BME280;14721;42.668;23.386;2023-10-31T14:41:09;94848.28;;;21.71;45.06
27210;BME280;14721;42.668;23.386;2023-10-31T14:43:35;94821.34;;;21.55;45.39
27210;BME280;14721;42.668;23.386;2023-10-31T14:46:01;94846.84;;;21.54;45.78
27210;BME280;14721;42.668;23.386;2023-10-31T14:48:26;94826.06;;;21.32;45.63
27210;BME280;14721;42.668;23.386;2023-10-31T14:50:54;94852.09;;;21.41;45.91
27210;BME280;14721;42.668;23.386;2023-10-31T14:53:22;94835.28;;;21.31;46.54
27210;BME280;14721;42.668;23.386;2023-10-31T14:55:50;94831.16;;;21.20;46.82
27210;BME280;14721;42.668;23.386;2023-10-31T14:58:16;94828.72;;;21.11;46.76
27210;BME280;14721;42.668;23.386;2023-10-31T15:00:41;94831.38;;;21.04;47.48
27210;BME280;14721;42.668;23.386;2023-10-31T15:03:07;94813.19;;;20.90;47.18
27210;BME280;14721;42.668;23.386;2023-10-31T15:05:34;94780.16;;;20.58;47.58
27210;BME280;14721;42.668;23.386;2023-10-31T15:08:00;94832.84;;;20.78;48.38
27210;BME280;14721;42.668;23.386;2023-10-31T15:10:26;94791.38;;;20.55;48.37
27210;BME280;14721;42.668;23.386;2023-10-31T15:12:55;94810.56;;;20.53;48.72
27210;BME280;14721;42.668;23.386;2023-10-31T15:15:41;94785.19;;;20.31;49.01
27210;BME280;14721;42.668;23.386;2023-10-31T15:18:11;94820.56;;;20.52;49.34
27210;BME280;14721;42.668;23.386;2023-10-31T15:20:36;94808.41;;;20.34;49.35
27210;BME280;14721;42.668;23.386;2023-10-31T15:23:01;94814.19;;;20.31;49.36
27210;BME280;14721;42.668;23.386;2023-10-31T15:25:28;94824.19;;;20.30;49.59
27210;BME280;14721;42.668;23.386;2023-10-31T15:27:53;94821.94;;;20.19;49.77
27210;BME280;14721;42.668;23.386;2023-10-31T15:30:20;94792.22;;;20.03;49.82
27210;BME280;14721;42.668;23.386;2023-10-31T15:32:45;94820.97;;;20.12;50.67
27210;BME280;14721;42.668;23.386;2023-10-31T15:35:16;94817.94;;;20.07;50.45
27210;BME280;14721;42.668;23.386;2023-10-31T15:37:42;94817.94;;;20.07;50.94
27210;BME280;14721;42.668;23.386;2023-10-31T15:40:09;94822.41;;;20.00;51.23
27210;BME280;14721;42.668;23.386;2023-10-31T15:42:35;94838.75;;;19.92;51.71
27210;BME280;14721;42.668;23.386;2023-10-31T15:45:00;94838.91;;;19.91;52.03
27210;BME280;14721;42.668;23.386;2023-10-31T15:47:27;94812.44;;;19.78;51.77
27210;BME280;14721;42.668;23.386;2023-10-31T15:49:52;94818.88;;;19.77;51.74
27210;BME280;14721;42.668;23.386;2023-10-31T15:52:18;94822.06;;;19.81;51.79
27210;BME280;14721;42.668;23.386;2023-10-31T15:54:43;94797.13;;;19.63;50.48
27210;BME280;14721;42.668;23.386;2023-10-31T15:57:09;94811.41;;;19.57;51.31
27210;BME280;14721;42.668;23.386;2023-10-31T15:59:34;94815.88;;;19.50;50.82
27210;BME280;14721;42.668;23.386;2023-10-31T16:02:00;94811.59;;;19.55;50.47
27210;BME280;14721;42.668;23.386;2023-10-31T16:04:25;94822.91;;;19.59;50.99
27210;BME280;14721;42.668;23.386;2023-10-31T16:06:52;94811.72;;;19.62;51.16
27210;BME280;14721;42.668;23.386;2023-10-31T16:09:18;94806.28;;;19.39;50.55
27210;BME280;14721;42.668;23.386;2023-10-31T16:11:43;94834.69;;;19.43;50.87
27210;BME280;14721;42.668;23.386;2023-10-31T16:14:14;94823.16;;;19.49;51.08
27210;BME280;14721;42.668;23.386;2023-10-31T16:16:47;94833.63;;;19.52;50.66
27210;BME280;14721;42.668;23.386;2023-10-31T16:19:15;94837.09;;;19.38;50.11
27210;BME280;14721;42.668;23.386;2023-10-31T16:21:41;94854.91;;;19.33;51.11
27210;BME280;14721;42.668;23.386;2023-10-31T16:24:07;94861.47;;;19.38;51.23
27210;BME280;14721;42.668;23.386;2023-10-31T16:26:35;94839.69;;;19.32;51.19
27210;BME280;14721;42.668;23.386;2023-10-31T16:29:00;94844.50;;;19.44;50.99
27210;BME280;14721;42.668;23.386;2023-10-31T16:31:36;94855.25;;;19.22;51.79
27210;BME280;14721;42.668;23.386;2023-10-31T16:34:18;94809.06;;;18.93;51.79
27210;BME280;14721;42.668;23.386;2023-10-31T16:40:57;94826.78;;;19.03;51.49
27210;BME280;14721;42.668;23.386;2023-10-31T16:54:26;94869.56;;;19.08;51.83
27210;BME280;14721;42.668;23.386;2023-10-31T17:04:20;94811.88;;;18.60;52.41
27210;BME280;14721;42.668;23.386;2023-10-31T17:24:04;94819.06;;;18.13;53.82
27210;BME280;14721;42.668;23.386;2023-10-31T17:30:01;94850.63;;;18.53;54.38
27210;BME280;14721;42.668;23.386;2023-10-31T17:33:17;94805.50;;;18.45;53.84
27210;BME280;14721;42.668;23.386;2023-10-31T20:13:03;94739.53;;;17.12;56.64
27210;BME280;14721;42.668;23.386;2023-10-31T20:15:49;94826.03;;;17.68;56.42
27210;BME280;14721;42.668;23.386;2023-10-31T20:18:34;94766.41;;;17.45;56.48
27210;BME280;14721;42.668;23.386;2023-10-31T20:24:08;94815.22;;;17.52;56.47
27210;BME280;14721;42.668;23.386;2023-10-31T20:26:42;94789.00;;;17.20;57.34
27210;BME280;14721;42.668;23.386;2023-10-31T20:29:13;94784.56;;;17.03;57.80